Terminal Aerodrome Forecast
Issued by NWS Houston/Galveston, TX

Home | Current Version | Previous Version | Text Only | Print | Product List | Glossary On
Versions: 1 2 3 4 5 6 7 8 9 10 11 12 13 14 15 16 17 18 19 20 21 22 23 24 25 26 27 28 29 30 31 32 33 34 35 36 37 38 39 40 41 42
000
FTUS44 KHGX 262328
TAFCLL
TAF
KCLL 262328Z 2700/2724 12008KT P6SM VCTS SCT040CB BKN250
     FM270200 VRB03KT P6SM BKN250
     FM270900 VRB03KT 6SM BR SCT007 SCT015
      TEMPO 2711/2713 4SM BR BKN007
     FM271500 07006KT P6SM SCT035
     FM271800 10007KT P6SM VCTS SCT040CB BKN250
     FM272300 11008KT P6SM BKN250=

USA.gov is the U.S. government's official web portal to all federal, state and local government web resources and services.